createdAt,value
2023-05-25T00:02:15.405Z,18.17
2023-05-25T00:07:18.752Z,18.12
2023-05-25T00:12:21.817Z,18.09
2023-05-25T00:17:31.894Z,18.06
2023-05-25T00:22:34.859Z,18.03
2023-05-25T00:27:37.796Z,17.99
2023-05-25T00:32:41.887Z,17.98
2023-05-25T00:37:45.003Z,17.93
2023-05-25T00:42:48.516Z,17.93
2023-05-25T00:47:53.303Z,17.93
2023-05-25T00:52:56.079Z,17.89
2023-05-25T00:58:01.696Z,17.85
2023-05-25T01:03:12.531Z,17.85
2023-05-25T01:08:15.972Z,17.81
2023-05-25T01:13:20.021Z,17.81
2023-05-25T01:18:24.158Z,17.77
2023-05-25T01:23:32.800Z,17.75
2023-05-25T01:28:40.261Z,17.74
2023-05-25T01:33:44.798Z,17.71
2023-05-25T01:38:49.441Z,17.68
2023-05-25T01:43:53.195Z,17.65
2023-05-25T01:49:01.427Z,17.64
2023-05-25T01:54:09.041Z,17.59
2023-05-25T01:59:11.840Z,17.58
2023-05-25T02:04:15.514Z,17.55
2023-05-25T02:09:19.718Z,17.54
2023-05-25T02:14:22.481Z,17.52
2023-05-25T02:19:25.211Z,17.47
2023-05-25T02:24:29.310Z,17.48
2023-05-25T02:29:32.022Z,17.41
2023-05-25T02:34:36.385Z,17.41
2023-05-25T02:39:40.483Z,17.38
2023-05-25T02:44:48.237Z,17.37
2023-05-25T02:49:51.251Z,17.36
2023-05-25T02:54:55.971Z,17.34
2023-05-25T03:00:07.800Z,17.33
2023-05-25T03:05:11.558Z,17.28
2023-05-25T03:10:16.155Z,17.27
2023-05-25T03:15:19.642Z,17.26
2023-05-25T03:20:24.631Z,17.25
2023-05-25T03:25:29.551Z,17.20
2023-05-25T03:30:33.575Z,17.19
2023-05-25T03:35:36.803Z,17.17
2023-05-25T03:40:41.083Z,17.15
2023-05-25T03:45:44.275Z,17.11
2023-05-25T03:50:47.149Z,17.12
2023-05-25T03:55:52.116Z,17.09
2023-05-25T04:00:56.212Z,17.09
2023-05-25T04:06:00.393Z,17.07
2023-05-25T04:11:04.534Z,17.08
2023-05-25T04:16:09.546Z,17.07
2023-05-25T04:21:12.680Z,17.09
2023-05-25T04:26:16.945Z,17.12
2023-05-25T04:31:21.344Z,17.09
2023-05-25T04:36:57.245Z,17.11
2023-05-25T04:42:04.328Z,17.28
2023-05-25T04:47:08.287Z,17.45
2023-05-25T04:52:11.739Z,17.88
2023-05-25T04:57:16.382Z,18.39
2023-05-25T05:02:19.189Z,18.76
2023-05-25T05:07:22.093Z,19.18
2023-05-25T05:12:26.369Z,19.38
2023-05-25T05:17:31.922Z,19.48
2023-05-25T05:22:34.975Z,19.48
2023-05-25T05:27:40.715Z,19.51
2023-05-25T05:32:50.669Z,19.52
2023-05-25T05:37:54.916Z,19.50
2023-05-25T05:42:59.008Z,19.53
2023-05-25T05:48:01.999Z,19.58
2023-05-25T05:53:05.149Z,19.62
2023-05-25T05:58:09.504Z,19.66
2023-05-25T06:03:13.141Z,19.69
2023-05-25T06:08:16.155Z,19.76
2023-05-25T06:13:20.491Z,19.79
2023-05-25T06:18:23.494Z,19.84
2023-05-25T06:23:27.438Z,19.88
2023-05-25T06:28:31.557Z,19.94
2023-05-25T06:33:34.528Z,19.99
2023-05-25T06:38:37.396Z,20.02
2023-05-25T06:43:42.317Z,20.06
2023-05-25T06:48:59.804Z,20.08
2023-05-25T06:54:03.293Z,20.14
2023-05-25T06:59:07.326Z,20.17
2023-05-25T07:04:10.096Z,20.19
2023-05-25T07:09:13.559Z,20.24
2023-05-25T07:14:18.238Z,20.31
2023-05-25T07:19:21.257Z,20.36
2023-05-25T07:24:23.954Z,20.38
2023-05-25T07:29:28.089Z,20.43
2023-05-25T07:34:31.071Z,20.45
2023-05-25T07:39:33.851Z,20.46
2023-05-25T07:44:37.942Z,20.40
2023-05-25T07:49:40.657Z,20.44
2023-05-25T07:54:43.413Z,20.46
2023-05-25T07:59:47.553Z,20.51
2023-05-25T08:04:50.504Z,20.51
2023-05-25T08:09:53.263Z,20.55
2023-05-25T08:14:57.357Z,20.57
2023-05-25T08:20:00.305Z,20.57
2023-05-25T08:25:04.534Z,20.60
2023-05-25T08:30:09.833Z,20.61
2023-05-25T08:35:14.037Z,20.66
2023-05-25T08:40:17.649Z,20.67
2023-05-25T08:45:34.310Z,20.68
2023-05-25T08:50:41.238Z,20.68
2023-05-25T08:55:44.625Z,20.68
2023-05-25T09:00:54.242Z,20.58
2023-05-25T09:05:57.958Z,20.58
2023-05-25T09:11:02.287Z,20.60
2023-05-25T09:16:06.707Z,20.69
2023-05-25T09:21:09.433Z,20.67
2023-05-25T09:26:12.124Z,20.65
2023-05-25T09:31:17.259Z,20.65
2023-05-25T09:36:21.977Z,20.66
2023-05-25T09:41:27.591Z,20.70
2023-05-25T09:46:32.654Z,20.69
2023-05-25T09:51:36.706Z,20.68
2023-05-25T09:56:39.543Z,20.68
2023-05-25T10:01:44.390Z,20.71
2023-05-25T10:06:49.858Z,20.69
2023-05-25T10:11:54.782Z,20.64
2023-05-25T10:16:59.676Z,20.62
2023-05-25T10:22:05.528Z,20.63
2023-05-25T10:32:59.818Z,20.64
2023-05-25T10:38:03.476Z,20.64
2023-05-25T10:43:06.646Z,20.65
2023-05-25T10:48:10.859Z,20.66
2023-05-25T10:53:16.062Z,20.68
2023-05-25T10:58:19.952Z,20.69
2023-05-25T11:03:24.055Z,20.70
2023-05-25T11:08:49.410Z,20.72
2023-05-25T11:13:52.118Z,20.72
2023-05-25T11:18:58.586Z,20.75
2023-05-25T11:24:03.122Z,20.74
2023-05-25T11:29:13.715Z,20.76
2023-05-25T11:34:18.881Z,20.78
2023-05-25T11:39:23.328Z,20.80
2023-05-25T11:44:28.166Z,20.83
2023-05-25T11:49:32.297Z,20.83
2023-05-25T11:54:35.264Z,20.84
2023-05-25T11:59:39.500Z,20.84
2023-05-25T12:04:53.980Z,20.88
2023-05-25T12:10:06.337Z,20.89
2023-05-25T12:15:11.232Z,20.92
2023-05-25T12:20:16.820Z,20.91
2023-05-25T12:25:21.460Z,20.94
2023-05-25T12:30:29.486Z,20.92
2023-05-25T12:35:46.039Z,20.94
2023-05-25T12:40:49.034Z,20.94
2023-05-25T12:45:51.844Z,20.95
2023-05-25T12:50:59.421Z,20.97
2023-05-25T12:56:03.472Z,20.95
2023-05-25T13:01:08.904Z,20.99
2023-05-25T13:06:12.969Z,21.00
2023-05-25T13:11:15.684Z,21.01
2023-05-25T13:16:18.453Z,21.02
2023-05-25T13:21:22.528Z,21.04
2023-05-25T13:26:26.311Z,21.04
2023-05-25T13:31:29.082Z,21.06
2023-05-25T13:36:34.688Z,21.07
2023-05-25T13:41:37.428Z,21.07
2023-05-25T13:46:40.700Z,21.08
2023-05-25T13:51:45.001Z,21.10
2023-05-25T13:56:47.712Z,21.11
2023-05-25T14:01:51.388Z,21.11
2023-05-25T14:06:57.047Z,21.12
2023-05-25T14:11:59.827Z,21.13
2023-05-25T14:17:02.689Z,21.15
2023-05-25T14:27:12.690Z,21.26
2023-05-25T14:32:16.994Z,21.32
2023-05-25T14:37:21.218Z,21.34
2023-05-25T14:42:23.990Z,21.36
2023-05-25T14:47:26.823Z,21.38
2023-05-25T14:52:30.948Z,21.40
2023-05-25T14:57:33.690Z,21.41
2023-05-25T15:02:36.474Z,21.43
2023-05-25T15:07:41.498Z,21.45
2023-05-25T15:12:44.271Z,21.47
2023-05-25T15:17:47.004Z,21.48
2023-05-25T15:22:53.626Z,21.48
2023-05-25T15:27:56.533Z,21.51
2023-05-25T15:32:59.359Z,21.53
2023-05-25T15:38:03.468Z,21.54
2023-05-25T15:43:06.253Z,21.59
2023-05-25T15:48:10.237Z,21.63
2023-05-25T15:53:14.463Z,21.71
2023-05-25T15:58:17.753Z,21.75
2023-05-25T16:03:20.547Z,21.80
2023-05-25T16:08:24.722Z,21.84
2023-05-25T16:13:27.594Z,21.87
2023-05-25T16:18:30.399Z,21.90
2023-05-25T16:23:34.584Z,21.96
2023-05-25T16:28:37.536Z,21.97
2023-05-25T16:33:41.870Z,21.98
2023-05-25T16:38:46.007Z,22.02
2023-05-25T16:43:48.749Z,22.05
2023-05-25T16:48:51.476Z,22.05
2023-05-25T16:53:56.024Z,22.02
2023-05-25T16:58:58.713Z,22.03
2023-05-25T17:04:01.606Z,22.10
2023-05-25T17:09:05.801Z,22.13
2023-05-25T17:14:08.818Z,22.17
2023-05-25T17:19:14.731Z,22.18
2023-05-25T17:24:18.940Z,22.19
2023-05-25T17:29:21.673Z,22.18
2023-05-25T17:34:24.371Z,22.18
2023-05-25T17:39:28.534Z,22.18
2023-05-25T17:44:31.265Z,22.16
2023-05-25T17:49:34.109Z,22.13
2023-05-25T17:54:38.184Z,22.09
2023-05-25T17:59:41.662Z,22.02
2023-05-25T18:04:45.137Z,21.96
2023-05-25T18:09:51.691Z,21.91
2023-05-25T18:14:54.511Z,21.87
2023-05-25T18:19:57.354Z,21.82
2023-05-25T18:25:01.468Z,21.77
2023-05-25T18:30:04.748Z,21.70
2023-05-25T18:35:08.430Z,21.67
2023-05-25T18:40:13.494Z,21.58
2023-05-25T18:45:16.316Z,21.53
2023-05-25T18:50:19.423Z,21.50
2023-05-25T18:55:23.670Z,21.42
2023-05-25T19:00:26.408Z,21.36
2023-05-25T19:05:29.115Z,21.28
2023-05-25T19:10:33.234Z,21.24
2023-05-25T19:15:36.020Z,21.18
2023-05-25T19:20:38.776Z,21.12
2023-05-25T19:25:43.028Z,21.08
2023-05-25T19:30:46.060Z,21.02
2023-05-25T19:35:48.770Z,20.94
2023-05-25T19:40:52.926Z,20.91
2023-05-25T19:45:55.815Z,20.86
2023-05-25T19:50:59.117Z,20.83
2023-05-25T19:56:03.829Z,20.78
2023-05-25T20:01:06.672Z,20.74
2023-05-25T20:06:09.518Z,20.69
2023-05-25T20:11:13.650Z,20.66
2023-05-25T20:16:16.482Z,20.64
2023-05-25T20:21:20.178Z,20.59
2023-05-25T20:26:24.285Z,20.56
2023-05-25T20:31:27.119Z,20.52
2023-05-25T20:36:29.903Z,20.50
2023-05-25T20:41:33.973Z,20.48
2023-05-25T20:46:36.995Z,20.44
2023-05-25T20:51:39.856Z,20.40
2023-05-25T20:56:44.177Z,20.36
2023-05-25T21:01:47.106Z,20.33
2023-05-25T21:06:49.858Z,20.31
2023-05-25T21:11:53.972Z,20.27
2023-05-25T21:16:56.784Z,20.24
2023-05-25T21:21:59.575Z,20.21
2023-05-25T21:27:03.706Z,20.18
2023-05-25T21:32:06.578Z,20.15
2023-05-25T21:37:09.660Z,20.11
2023-05-25T21:42:14.082Z,20.08
2023-05-25T21:47:16.978Z,20.07
2023-05-25T21:52:19.811Z,20.02
2023-05-25T21:57:24.142Z,20.01
2023-05-25T22:02:26.962Z,19.99
2023-05-25T22:07:29.781Z,19.97
2023-05-25T22:12:33.915Z,19.93
2023-05-25T22:17:36.744Z,19.88
2023-05-25T22:22:39.630Z,19.86
2023-05-25T22:27:43.741Z,19.82
2023-05-25T22:32:46.559Z,19.81
2023-05-25T22:37:49.392Z,19.79
2023-05-25T22:42:53.450Z,19.75
2023-05-25T22:47:56.201Z,19.73
2023-05-25T22:52:59.042Z,19.69
2023-05-25T22:58:03.182Z,19.68
2023-05-25T23:03:06.011Z,19.61
2023-05-25T23:08:09.447Z,19.60
2023-05-25T23:13:14.880Z,19.59
2023-05-25T23:18:17.649Z,19.56
2023-05-25T23:23:20.695Z,19.53
2023-05-25T23:28:24.766Z,19.49
2023-05-25T23:33:29.131Z,19.45
2023-05-25T23:38:32.220Z,19.42
2023-05-25T23:43:36.316Z,19.38
2023-05-25T23:48:39.070Z,19.31
2023-05-25T23:53:41.796Z,19.31
2023-05-25T23:58:45.925Z,19.28
